sensor_id;sensor_type;location;lat;lon;timestamp;temperature;humidity
61912;DHT22;49973;52.084;5.412;2024-01-30T00:01:11;8.00;99.90
61912;DHT22;49973;52.084;5.412;2024-01-30T00:03:40;8.00;99.90
61912;DHT22;49973;52.084;5.412;2024-01-30T00:06:09;8.00;99.90
61912;DHT22;49973;52.084;5.412;2024-01-30T00:08:37;7.90;99.90
61912;DHT22;49973;52.084;5.412;2024-01-30T00:11:09;7.90;99.90
61912;DHT22;49973;52.084;5.412;2024-01-30T00:13:38;7.90;99.90
61912;DHT22;49973;52.084;5.412;2024-01-30T00:16:07;7.90;99.90
61912;DHT22;49973;52.084;5.412;2024-01-30T00:18:36;7.90;99.90
61912;DHT22;49973;52.084;5.412;2024-01-30T00:21:06;7.90;99.90
61912;DHT22;49973;52.084;5.412;2024-01-30T00:23:35;7.90;99.90
61912;DHT22;49973;52.084;5.412;2024-01-30T00:26:04;7.80;99.90
61912;DHT22;49973;52.084;5.412;2024-01-30T00:28:35;7.80;99.90
61912;DHT22;49973;52.084;5.412;2024-01-30T00:31:03;7.90;99.90
61912;DHT22;49973;52.084;5.412;2024-01-30T00:33:32;7.80;99.90
61912;DHT22;49973;52.084;5.412;2024-01-30T00:36:01;7.80;99.90
61912;DHT22;49973;52.084;5.412;2024-01-30T00:38:30;7.70;99.90
61912;DHT22;49973;52.084;5.412;2024-01-30T00:40:59;7.70;99.90
61912;DHT22;49973;52.084;5.412;2024-01-30T00:43:29;7.70;99.90
61912;DHT22;49973;52.084;5.412;2024-01-30T00:46:00;7.70;99.90
61912;DHT22;49973;52.084;5.412;2024-01-30T00:48:30;7.70;99.90
61912;DHT22;49973;52.084;5.412;2024-01-30T00:50:59;7.70;99.90
61912;DHT22;49973;52.084;5.412;2024-01-30T00:53:28;7.70;99.90
61912;DHT22;49973;52.084;5.412;2024-01-30T00:55:57;7.70;99.90
61912;DHT22;49973;52.084;5.412;2024-01-30T00:58:26;7.70;99.90
61912;DHT22;49973;52.084;5.412;2024-01-30T01:00:54;7.70;99.90
61912;DHT22;49973;52.084;5.412;2024-01-30T01:03:25;7.70;99.90
61912;DHT22;49973;52.084;5.412;2024-01-30T01:05:54;7.70;99.90
61912;DHT22;49973;52.084;5.412;2024-01-30T01:08:23;7.60;99.90
61912;DHT22;49973;52.084;5.412;2024-01-30T01:10:52;7.70;99.90
61912;DHT22;49973;52.084;5.412;2024-01-30T01:13:21;7.70;99.90
61912;DHT22;49973;52.084;5.412;2024-01-30T01:15:50;7.70;99.90
61912;DHT22;49973;52.084;5.412;2024-01-30T01:18:19;7.70;99.90
61912;DHT22;49973;52.084;5.412;2024-01-30T01:20:49;7.70;99.90
61912;DHT22;49973;52.084;5.412;2024-01-30T01:23:18;7.70;99.90
61912;DHT22;49973;52.084;5.412;2024-01-30T01:25:47;7.70;99.90
61912;DHT22;49973;52.084;5.412;2024-01-30T01:28:16;7.70;99.90
61912;DHT22;49973;52.084;5.412;2024-01-30T01:30:44;7.70;99.90
61912;DHT22;49973;52.084;5.412;2024-01-30T01:33:13;7.80;99.90
61912;DHT22;49973;52.084;5.412;2024-01-30T01:35:42;7.80;99.90
61912;DHT22;49973;52.084;5.412;2024-01-30T01:38:13;7.80;99.90
61912;DHT22;49973;52.084;5.412;2024-01-30T01:40:42;7.80;99.90
61912;DHT22;49973;52.084;5.412;2024-01-30T01:43:11;7.80;99.90
61912;DHT22;49973;52.084;5.412;2024-01-30T01:45:40;8.00;99.90
61912;DHT22;49973;52.084;5.412;2024-01-30T01:48:09;7.80;99.90
61912;DHT22;49973;52.084;5.412;2024-01-30T01:50:39;7.80;99.90
61912;DHT22;49973;52.084;5.412;2024-01-30T01:53:08;7.80;99.90
61912;DHT22;49973;52.084;5.412;2024-01-30T01:55:39;7.80;99.90
61912;DHT22;49973;52.084;5.412;2024-01-30T01:58:09;7.80;99.90
61912;DHT22;49973;52.084;5.412;2024-01-30T02:00:40;7.80;99.90
61912;DHT22;49973;52.084;5.412;2024-01-30T02:03:10;7.80;99.90
61912;DHT22;49973;52.084;5.412;2024-01-30T02:05:41;7.80;99.90
61912;DHT22;49973;52.084;5.412;2024-01-30T02:08:10;7.80;99.90
61912;DHT22;49973;52.084;5.412;2024-01-30T02:10:40;7.80;99.90
61912;DHT22;49973;52.084;5.412;2024-01-30T02:13:09;7.80;99.90
61912;DHT22;49973;52.084;5.412;2024-01-30T02:15:38;7.80;99.90
61912;DHT22;49973;52.084;5.412;2024-01-30T02:18:07;7.80;99.90
61912;DHT22;49973;52.084;5.412;2024-01-30T02:20:37;7.80;99.90
61912;DHT22;49973;52.084;5.412;2024-01-30T02:23:09;7.80;99.90
61912;DHT22;49973;52.084;5.412;2024-01-30T02:25:40;7.80;99.90
61912;DHT22;49973;52.084;5.412;2024-01-30T02:28:12;7.80;99.90
61912;DHT22;49973;52.084;5.412;2024-01-30T02:30:42;7.80;99.90
61912;DHT22;49973;52.084;5.412;2024-01-30T02:33:11;7.80;99.90
61912;DHT22;49973;52.084;5.412;2024-01-30T02:35:41;7.80;99.90
61912;DHT22;49973;52.084;5.412;2024-01-30T02:38:11;7.80;99.90
61912;DHT22;49973;52.084;5.412;2024-01-30T02:40:40;7.80;99.90
61912;DHT22;49973;52.084;5.412;2024-01-30T02:43:09;7.80;99.90
61912;DHT22;49973;52.084;5.412;2024-01-30T02:45:38;7.80;99.90
61912;DHT22;49973;52.084;5.412;2024-01-30T02:48:07;7.80;99.90
61912;DHT22;49973;52.084;5.412;2024-01-30T02:50:36;7.80;99.90
61912;DHT22;49973;52.084;5.412;2024-01-30T02:53:05;7.80;99.90
61912;DHT22;49973;52.084;5.412;2024-01-30T02:55:35;7.80;99.90
61912;DHT22;49973;52.084;5.412;2024-01-30T02:58:08;7.80;99.90
61912;DHT22;49973;52.084;5.412;2024-01-30T03:00:37;7.80;99.90
61912;DHT22;49973;52.084;5.412;2024-01-30T03:03:06;7.80;99.90
61912;DHT22;49973;52.084;5.412;2024-01-30T03:05:35;7.80;99.90
61912;DHT22;49973;52.084;5.412;2024-01-30T03:08:05;7.80;99.90
61912;DHT22;49973;52.084;5.412;2024-01-30T03:10:35;7.80;99.90
61912;DHT22;49973;52.084;5.412;2024-01-30T03:13:07;7.80;99.90
61912;DHT22;49973;52.084;5.412;2024-01-30T03:15:36;7.80;99.90
61912;DHT22;49973;52.084;5.412;2024-01-30T03:18:05;7.80;99.90
61912;DHT22;49973;52.084;5.412;2024-01-30T03:20:35;7.80;99.90
61912;DHT22;49973;52.084;5.412;2024-01-30T03:23:04;7.80;99.90
61912;DHT22;49973;52.084;5.412;2024-01-30T03:25:34;7.80;99.90
61912;DHT22;49973;52.084;5.412;2024-01-30T03:28:04;7.80;99.90
61912;DHT22;49973;52.084;5.412;2024-01-30T03:30:34;7.80;99.90
61912;DHT22;49973;52.084;5.412;2024-01-30T03:33:04;7.80;99.90
61912;DHT22;49973;52.084;5.412;2024-01-30T03:35:33;7.80;99.90
61912;DHT22;49973;52.084;5.412;2024-01-30T03:38:03;7.90;99.90
61912;DHT22;49973;52.084;5.412;2024-01-30T03:40:32;7.90;99.90
61912;DHT22;49973;52.084;5.412;2024-01-30T03:43:02;7.90;99.90
61912;DHT22;49973;52.084;5.412;2024-01-30T03:45:32;7.90;99.90
61912;DHT22;49973;52.084;5.412;2024-01-30T03:48:01;8.00;99.90
61912;DHT22;49973;52.084;5.412;2024-01-30T03:50:33;8.00;99.90
61912;DHT22;49973;52.084;5.412;2024-01-30T03:53:02;8.00;99.90
61912;DHT22;49973;52.084;5.412;2024-01-30T03:55:31;8.00;99.90
61912;DHT22;49973;52.084;5.412;2024-01-30T03:58:01;8.10;99.90
61912;DHT22;49973;52.084;5.412;2024-01-30T04:00:30;8.10;99.90
61912;DHT22;49973;52.084;5.412;2024-01-30T04:02:59;8.10;99.90
61912;DHT22;49973;52.084;5.412;2024-01-30T04:05:28;8.10;99.90
61912;DHT22;49973;52.084;5.412;2024-01-30T04:07:57;8.00;99.90
61912;DHT22;49973;52.084;5.412;2024-01-30T04:10:25;8.20;99.90
61912;DHT22;49973;52.084;5.412;2024-01-30T04:12:55;8.20;99.90
61912;DHT22;49973;52.084;5.412;2024-01-30T04:15:25;8.20;99.90
61912;DHT22;49973;52.084;5.412;2024-01-30T04:17:57;8.20;99.90
61912;DHT22;49973;52.084;5.412;2024-01-30T04:20:26;8.20;99.90
61912;DHT22;49973;52.084;5.412;2024-01-30T04:22:56;8.20;99.90
61912;DHT22;49973;52.084;5.412;2024-01-30T04:25:25;8.30;99.90
61912;DHT22;49973;52.084;5.412;2024-01-30T04:27:53;8.30;99.90
61912;DHT22;49973;52.084;5.412;2024-01-30T04:30:22;8.30;99.90
61912;DHT22;49973;52.084;5.412;2024-01-30T04:32:52;8.30;99.90
61912;DHT22;49973;52.084;5.412;2024-01-30T04:35:21;8.30;99.90
61912;DHT22;49973;52.084;5.412;2024-01-30T04:37:52;8.40;99.90
61912;DHT22;49973;52.084;5.412;2024-01-30T04:40:21;8.30;99.90
61912;DHT22;49973;52.084;5.412;2024-01-30T04:42:50;8.30;99.90
61912;DHT22;49973;52.084;5.412;2024-01-30T04:45:19;8.30;99.90
61912;DHT22;49973;52.084;5.412;2024-01-30T04:47:47;8.30;99.90
61912;DHT22;49973;52.084;5.412;2024-01-30T04:50:18;8.30;99.90
61912;DHT22;49973;52.084;5.412;2024-01-30T04:52:47;8.30;99.90
61912;DHT22;49973;52.084;5.412;2024-01-30T04:55:15;8.30;99.90
61912;DHT22;49973;52.084;5.412;2024-01-30T04:57:47;8.30;99.90
61912;DHT22;49973;52.084;5.412;2024-01-30T05:00:16;8.30;99.90
61912;DHT22;49973;52.084;5.412;2024-01-30T05:02:46;8.30;99.90
61912;DHT22;49973;52.084;5.412;2024-01-30T05:05:14;8.40;99.90
61912;DHT22;49973;52.084;5.412;2024-01-30T05:07:45;8.30;99.90
61912;DHT22;49973;52.084;5.412;2024-01-30T05:10:14;8.30;99.90
61912;DHT22;49973;52.084;5.412;2024-01-30T05:12:42;8.30;99.90
61912;DHT22;49973;52.084;5.412;2024-01-30T05:15:11;8.30;99.90
61912;DHT22;49973;52.084;5.412;2024-01-30T05:17:40;8.30;99.90
61912;DHT22;49973;52.084;5.412;2024-01-30T05:20:10;8.30;99.90
61912;DHT22;49973;52.084;5.412;2024-01-30T05:22:39;8.40;99.90
61912;DHT22;49973;52.084;5.412;2024-01-30T05:25:14;8.40;99.90
61912;DHT22;49973;52.084;5.412;2024-01-30T05:27:42;8.40;99.90
61912;DHT22;49973;52.084;5.412;2024-01-30T05:30:12;8.40;99.90
61912;DHT22;49973;52.084;5.412;2024-01-30T05:32:41;8.40;99.90
61912;DHT22;49973;52.084;5.412;2024-01-30T05:35:09;8.40;99.90
61912;DHT22;49973;52.084;5.412;2024-01-30T05:37:38;8.60;99.90
61912;DHT22;49973;52.084;5.412;2024-01-30T05:40:07;8.50;99.90
61912;DHT22;49973;52.084;5.412;2024-01-30T05:42:38;8.50;99.90
61912;DHT22;49973;52.084;5.412;2024-01-30T05:45:07;8.70;99.90
61912;DHT22;49973;52.084;5.412;2024-01-30T05:47:36;8.50;99.90
61912;DHT22;49973;52.084;5.412;2024-01-30T05:50:06;8.50;99.90
61912;DHT22;49973;52.084;5.412;2024-01-30T05:52:35;8.50;99.90
61912;DHT22;49973;52.084;5.412;2024-01-30T05:55:04;8.50;99.90
61912;DHT22;49973;52.084;5.412;2024-01-30T05:57:33;8.50;99.90
61912;DHT22;49973;52.084;5.412;2024-01-30T06:00:04;8.50;99.90
61912;DHT22;49973;52.084;5.412;2024-01-30T06:02:33;8.50;99.90
61912;DHT22;49973;52.084;5.412;2024-01-30T06:05:02;8.50;99.90
61912;DHT22;49973;52.084;5.412;2024-01-30T06:07:31;8.50;99.90
61912;DHT22;49973;52.084;5.412;2024-01-30T06:10:04;8.50;99.90
61912;DHT22;49973;52.084;5.412;2024-01-30T06:12:34;8.60;99.90
61912;DHT22;49973;52.084;5.412;2024-01-30T06:15:05;8.60;99.90
61912;DHT22;49973;52.084;5.412;2024-01-30T06:17:34;8.60;99.90
61912;DHT22;49973;52.084;5.412;2024-01-30T06:20:04;8.60;99.90
61912;DHT22;49973;52.084;5.412;2024-01-30T06:22:33;8.60;99.90
61912;DHT22;49973;52.084;5.412;2024-01-30T06:25:02;8.60;99.90
61912;DHT22;49973;52.084;5.412;2024-01-30T06:27:30;8.60;99.90
61912;DHT22;49973;52.084;5.412;2024-01-30T06:30:00;8.60;99.90
61912;DHT22;49973;52.084;5.412;2024-01-30T06:32:30;8.70;99.90
61912;DHT22;49973;52.084;5.412;2024-01-30T06:35:02;8.60;99.90
61912;DHT22;49973;52.084;5.412;2024-01-30T06:37:31;8.60;99.90
61912;DHT22;49973;52.084;5.412;2024-01-30T06:40:00;8.60;99.90
61912;DHT22;49973;52.084;5.412;2024-01-30T06:42:28;8.60;99.90
61912;DHT22;49973;52.084;5.412;2024-01-30T06:44:57;8.60;99.90
61912;DHT22;49973;52.084;5.412;2024-01-30T06:47:26;8.70;99.90
61912;DHT22;49973;52.084;5.412;2024-01-30T06:49:57;8.70;99.90
61912;DHT22;49973;52.084;5.412;2024-01-30T06:52:26;8.60;99.90
61912;DHT22;49973;52.084;5.412;2024-01-30T06:54:55;8.70;99.90
61912;DHT22;49973;52.084;5.412;2024-01-30T06:57:24;8.70;99.90
61912;DHT22;49973;52.084;5.412;2024-01-30T06:59:55;8.70;99.90
61912;DHT22;49973;52.084;5.412;2024-01-30T07:02:24;8.80;99.90
61912;DHT22;49973;52.084;5.412;2024-01-30T07:04:52;8.80;99.90
61912;DHT22;49973;52.084;5.412;2024-01-30T07:07:22;8.80;99.90
61912;DHT22;49973;52.084;5.412;2024-01-30T07:09:51;8.90;99.90
61912;DHT22;49973;52.084;5.412;2024-01-30T07:12:24;9.00;99.90
61912;DHT22;49973;52.084;5.412;2024-01-30T07:14:53;8.90;99.90
61912;DHT22;49973;52.084;5.412;2024-01-30T07:17:24;8.90;99.90
61912;DHT22;49973;52.084;5.412;2024-01-30T07:19:52;8.90;99.90
61912;DHT22;49973;52.084;5.412;2024-01-30T07:22:22;8.90;99.90
61912;DHT22;49973;52.084;5.412;2024-01-30T07:24:51;8.90;99.90
61912;DHT22;49973;52.084;5.412;2024-01-30T07:27:20;9.00;99.90
61912;DHT22;49973;52.084;5.412;2024-01-30T07:29:49;9.00;99.90
61912;DHT22;49973;52.084;5.412;2024-01-30T07:32:17;9.00;99.90
61912;DHT22;49973;52.084;5.412;2024-01-30T07:34:47;9.00;99.90
61912;DHT22;49973;52.084;5.412;2024-01-30T07:37:34;9.00;99.90
61912;DHT22;49973;52.084;5.412;2024-01-30T07:40:05;9.00;99.90
61912;DHT22;49973;52.084;5.412;2024-01-30T07:42:34;9.10;99.90
61912;DHT22;49973;52.084;5.412;2024-01-30T07:45:03;9.10;99.90
61912;DHT22;49973;52.084;5.412;2024-01-30T07:47:32;9.10;99.90
61912;DHT22;49973;52.084;5.412;2024-01-30T07:50:01;9.20;99.90
61912;DHT22;49973;52.084;5.412;2024-01-30T07:52:30;9.20;99.90
61912;DHT22;49973;52.084;5.412;2024-01-30T07:55:01;9.20;99.90
61912;DHT22;49973;52.084;5.412;2024-01-30T07:57:31;9.20;99.90
61912;DHT22;49973;52.084;5.412;2024-01-30T08:00:00;9.30;99.90
61912;DHT22;49973;52.084;5.412;2024-01-30T08:02:33;9.30;99.90
61912;DHT22;49973;52.084;5.412;2024-01-30T08:05:02;9.40;99.90
61912;DHT22;49973;52.084;5.412;2024-01-30T08:07:31;9.40;99.90
61912;DHT22;49973;52.084;5.412;2024-01-30T08:10:01;9.50;99.90
61912;DHT22;49973;52.084;5.412;2024-01-30T08:12:31;9.50;99.90
61912;DHT22;49973;52.084;5.412;2024-01-30T08:14:59;9.60;99.90
61912;DHT22;49973;52.084;5.412;2024-01-30T08:17:28;9.60;99.90
61912;DHT22;49973;52.084;5.412;2024-01-30T08:19:57;9.70;99.90
61912;DHT22;49973;52.084;5.412;2024-01-30T08:22:26;9.70;99.90
61912;DHT22;49973;52.084;5.412;2024-01-30T08:24:54;9.80;99.90
61912;DHT22;49973;52.084;5.412;2024-01-30T08:27:24;9.80;99.90
61912;DHT22;49973;52.084;5.412;2024-01-30T08:29:53;9.90;99.90
61912;DHT22;49973;52.084;5.412;2024-01-30T08:32:23;9.90;99.90
61912;DHT22;49973;52.084;5.412;2024-01-30T08:34:52;10.00;99.90
61912;DHT22;49973;52.084;5.412;2024-01-30T08:37:22;10.10;99.90
61912;DHT22;49973;52.084;5.412;2024-01-30T08:39:51;10.10;99.90
61912;DHT22;49973;52.084;5.412;2024-01-30T08:42:21;10.20;99.90
61912;DHT22;49973;52.084;5.412;2024-01-30T08:44:51;10.30;99.90
61912;DHT22;49973;52.084;5.412;2024-01-30T08:47:21;10.30;99.90
61912;DHT22;49973;52.084;5.412;2024-01-30T08:49:50;10.40;99.90
61912;DHT22;49973;52.084;5.412;2024-01-30T08:52:19;10.50;99.90
61912;DHT22;49973;52.084;5.412;2024-01-30T08:54:48;10.80;99.90
61912;DHT22;49973;52.084;5.412;2024-01-30T08:57:16;10.70;99.90
61912;DHT22;49973;52.084;5.412;2024-01-30T08:59:45;10.80;99.90
61912;DHT22;49973;52.084;5.412;2024-01-30T09:02:15;10.80;99.90
61912;DHT22;49973;52.084;5.412;2024-01-30T09:04:45;10.90;99.90
61912;DHT22;49973;52.084;5.412;2024-01-30T09:07:14;11.00;99.90
61912;DHT22;49973;52.084;5.412;2024-01-30T09:09:43;11.10;99.90
61912;DHT22;49973;52.084;5.412;2024-01-30T09:12:12;11.30;99.90
61912;DHT22;49973;52.084;5.412;2024-01-30T09:14:42;11.20;99.90
61912;DHT22;49973;52.084;5.412;2024-01-30T09:17:10;11.40;99.90
61912;DHT22;49973;52.084;5.412;2024-01-30T09:19:40;11.40;99.90
61912;DHT22;49973;52.084;5.412;2024-01-30T09:22:09;11.50;99.90
61912;DHT22;49973;52.084;5.412;2024-01-30T09:24:38;11.70;99.90
61912;DHT22;49973;52.084;5.412;2024-01-30T09:27:07;11.70;99.90
61912;DHT22;49973;52.084;5.412;2024-01-30T09:29:35;11.80;99.90
61912;DHT22;49973;52.084;5.412;2024-01-30T09:32:05;11.80;99.90
61912;DHT22;49973;52.084;5.412;2024-01-30T09:34:34;11.90;99.90
61912;DHT22;49973;52.084;5.412;2024-01-30T09:37:05;11.90;99.90
61912;DHT22;49973;52.084;5.412;2024-01-30T09:39:33;11.90;99.90
61912;DHT22;49973;52.084;5.412;2024-01-30T09:42:06;11.90;99.90
61912;DHT22;49973;52.084;5.412;2024-01-30T09:44:41;11.90;99.90
61912;DHT22;49973;52.084;5.412;2024-01-30T09:47:11;11.90;99.90
61912;DHT22;49973;52.084;5.412;2024-01-30T09:49:42;11.90;99.90
61912;DHT22;49973;52.084;5.412;2024-01-30T09:52:13;11.80;99.90
61912;DHT22;49973;52.084;5.412;2024-01-30T09:54:43;11.80;99.90
61912;DHT22;49973;52.084;5.412;2024-01-30T09:57:13;11.80;99.90
61912;DHT22;49973;52.084;5.412;2024-01-30T09:59:42;11.80;99.90
61912;DHT22;49973;52.084;5.412;2024-01-30T10:02:11;11.90;99.90
61912;DHT22;49973;52.084;5.412;2024-01-30T10:04:40;11.90;99.90
61912;DHT22;49973;52.084;5.412;2024-01-30T10:07:10;11.90;99.90
61912;DHT22;49973;52.084;5.412;2024-01-30T10:09:41;11.90;99.90
61912;DHT22;49973;52.084;5.412;2024-01-30T10:12:10;11.90;99.90
61912;DHT22;49973;52.084;5.412;2024-01-30T10:14:39;12.00;99.90
61912;DHT22;49973;52.084;5.412;2024-01-30T10:17:08;12.00;99.90
61912;DHT22;49973;52.084;5.412;2024-01-30T10:19:48;12.00;99.90
61912;DHT22;49973;52.084;5.412;2024-01-30T10:22:17;12.00;99.90
61912;DHT22;49973;52.084;5.412;2024-01-30T10:24:48;12.00;99.90
61912;DHT22;49973;52.084;5.412;2024-01-30T10:27:17;12.10;99.90
61912;DHT22;49973;52.084;5.412;2024-01-30T10:29:52;12.10;99.90
61912;DHT22;49973;52.084;5.412;2024-01-30T10:32:21;12.20;99.90
61912;DHT22;49973;52.084;5.412;2024-01-30T10:34:49;12.30;99.90
61912;DHT22;49973;52.084;5.412;2024-01-30T10:37:19;12.40;99.90
61912;DHT22;49973;52.084;5.412;2024-01-30T10:39:53;12.50;99.90
61912;DHT22;49973;52.084;5.412;2024-01-30T10:42:26;12.60;99.90
61912;DHT22;49973;52.084;5.412;2024-01-30T10:45:00;12.70;99.90
61912;DHT22;49973;52.084;5.412;2024-01-30T10:47:30;12.70;99.90
61912;DHT22;49973;52.084;5.412;2024-01-30T10:50:02;12.70;99.90
61912;DHT22;49973;52.084;5.412;2024-01-30T10:52:32;12.80;99.90
61912;DHT22;49973;52.084;5.412;2024-01-30T10:55:04;12.80;99.90
61912;DHT22;49973;52.084;5.412;2024-01-30T10:57:34;12.80;99.90
61912;DHT22;49973;52.084;5.412;2024-01-30T11:00:05;12.70;99.90
61912;DHT22;49973;52.084;5.412;2024-01-30T11:02:38;12.60;99.90
61912;DHT22;49973;52.084;5.412;2024-01-30T11:05:08;12.60;99.90
61912;DHT22;49973;52.084;5.412;2024-01-30T11:07:39;12.50;99.90
61912;DHT22;49973;52.084;5.412;2024-01-30T11:10:12;12.50;99.90
61912;DHT22;49973;52.084;5.412;2024-01-30T11:12:43;12.50;99.90
61912;DHT22;49973;52.084;5.412;2024-01-30T11:15:15;12.50;99.90
61912;DHT22;49973;52.084;5.412;2024-01-30T11:17:45;12.50;99.90
61912;DHT22;49973;52.084;5.412;2024-01-30T11:20:20;12.60;99.90
61912;DHT22;49973;52.084;5.412;2024-01-30T11:22:52;12.70;99.90
61912;DHT22;49973;52.084;5.412;2024-01-30T11:25:23;12.70;99.90
61912;DHT22;49973;52.084;5.412;2024-01-30T11:27:53;12.70;99.90
61912;DHT22;49973;52.084;5.412;2024-01-30T11:30:23;12.60;99.90
61912;DHT22;49973;52.084;5.412;2024-01-30T11:33:02;12.60;99.90
61912;DHT22;49973;52.084;5.412;2024-01-30T11:35:35;12.50;99.90
61912;DHT22;49973;52.084;5.412;2024-01-30T11:38:04;12.40;99.90
61912;DHT22;49973;52.084;5.412;2024-01-30T11:40:35;12.40;99.90
61912;DHT22;49973;52.084;5.412;2024-01-30T11:43:05;12.40;99.90
61912;DHT22;49973;52.084;5.412;2024-01-30T11:45:35;12.40;99.90
61912;DHT22;49973;52.084;5.412;2024-01-30T11:48:05;12.40;99.90
61912;DHT22;49973;52.084;5.412;2024-01-30T11:50:38;12.30;99.90
61912;DHT22;49973;52.084;5.412;2024-01-30T11:53:07;12.30;99.90
61912;DHT22;49973;52.084;5.412;2024-01-30T11:55:37;12.40;99.90
61912;DHT22;49973;52.084;5.412;2024-01-30T11:58:06;12.40;99.90
61912;DHT22;49973;52.084;5.412;2024-01-30T12:00:35;12.40;99.90
61912;DHT22;49973;52.084;5.412;2024-01-30T12:03:04;12.40;99.90
61912;DHT22;49973;52.084;5.412;2024-01-30T12:05:34;12.40;99.90
61912;DHT22;49973;52.084;5.412;2024-01-30T12:08:04;12.30;99.90
61912;DHT22;49973;52.084;5.412;2024-01-30T12:10:36;12.30;99.90
61912;DHT22;49973;52.084;5.412;2024-01-30T12:13:05;12.30;99.90
61912;DHT22;49973;52.084;5.412;2024-01-30T12:15:34;12.30;99.90
61912;DHT22;49973;52.084;5.412;2024-01-30T12:18:06;12.30;99.90
61912;DHT22;49973;52.084;5.412;2024-01-30T12:20:35;12.30;99.90
61912;DHT22;49973;52.084;5.412;2024-01-30T12:23:04;12.10;99.90
61912;DHT22;49973;52.084;5.412;2024-01-30T12:25:33;12.00;99.90
61912;DHT22;49973;52.084;5.412;2024-01-30T12:28:04;11.90;99.90
61912;DHT22;49973;52.084;5.412;2024-01-30T12:30:35;11.80;99.90
61912;DHT22;49973;52.084;5.412;2024-01-30T12:33:03;11.70;99.90
61912;DHT22;49973;52.084;5.412;2024-01-30T12:35:35;11.50;99.90
61912;DHT22;49973;52.084;5.412;2024-01-30T12:38:15;11.30;99.90
61912;DHT22;49973;52.084;5.412;2024-01-30T12:40:44;11.30;99.90
61912;DHT22;49973;52.084;5.412;2024-01-30T12:43:15;11.20;99.90
61912;DHT22;49973;52.084;5.412;2024-01-30T12:45:58;11.10;99.90
61912;DHT22;49973;52.084;5.412;2024-01-30T12:48:28;11.10;99.90
61912;DHT22;49973;52.084;5.412;2024-01-30T12:50:57;10.90;99.90
61912;DHT22;49973;52.084;5.412;2024-01-30T12:53:26;11.00;99.90
61912;DHT22;49973;52.084;5.412;2024-01-30T12:55:55;10.80;99.90
61912;DHT22;49973;52.084;5.412;2024-01-30T12:58:25;10.80;99.90
61912;DHT22;49973;52.084;5.412;2024-01-30T13:00:54;10.70;99.90
61912;DHT22;49973;52.084;5.412;2024-01-30T13:03:23;10.60;99.90
61912;DHT22;49973;52.084;5.412;2024-01-30T13:05:52;10.70;99.90
61912;DHT22;49973;52.084;5.412;2024-01-30T13:08:21;10.60;99.90
61912;DHT22;49973;52.084;5.412;2024-01-30T13:10:49;10.60;99.90
61912;DHT22;49973;52.084;5.412;2024-01-30T13:13:18;10.70;99.90
61912;DHT22;49973;52.084;5.412;2024-01-30T13:15:49;10.70;99.90
61912;DHT22;49973;52.084;5.412;2024-01-30T13:18:17;10.70;99.90
61912;DHT22;49973;52.084;5.412;2024-01-30T13:20:47;10.70;99.90
61912;DHT22;49973;52.084;5.412;2024-01-30T13:23:15;10.70;99.90
61912;DHT22;49973;52.084;5.412;2024-01-30T13:25:44;10.80;99.90
61912;DHT22;49973;52.084;5.412;2024-01-30T13:28:12;10.90;99.90
61912;DHT22;49973;52.084;5.412;2024-01-30T13:30:41;10.80;99.90
61912;DHT22;49973;52.084;5.412;2024-01-30T13:33:11;10.80;99.90
61912;DHT22;49973;52.084;5.412;2024-01-30T13:35:40;10.80;99.90
61912;DHT22;49973;52.084;5.412;2024-01-30T13:38:10;10.70;99.90
61912;DHT22;49973;52.084;5.412;2024-01-30T13:40:38;10.70;99.90
61912;DHT22;49973;52.084;5.412;2024-01-30T13:43:07;10.70;99.90
61912;DHT22;49973;52.084;5.412;2024-01-30T13:45:36;10.70;99.90
61912;DHT22;49973;52.084;5.412;2024-01-30T13:48:05;10.60;99.90
61912;DHT22;49973;52.084;5.412;2024-01-30T13:50:35;10.50;99.90
61912;DHT22;49973;52.084;5.412;2024-01-30T13:53:04;10.40;99.90
61912;DHT22;49973;52.084;5.412;2024-01-30T13:55:34;10.30;99.90
61912;DHT22;49973;52.084;5.412;2024-01-30T13:58:03;10.40;99.90
61912;DHT22;49973;52.084;5.412;2024-01-30T14:00:33;10.30;99.90
61912;DHT22;49973;52.084;5.412;2024-01-30T14:03:02;10.30;99.90
61912;DHT22;49973;52.084;5.412;2024-01-30T14:05:30;10.30;99.90
61912;DHT22;49973;52.084;5.412;2024-01-30T14:08:01;10.30;99.90
61912;DHT22;49973;52.084;5.412;2024-01-30T14:10:30;10.30;99.90
61912;DHT22;49973;52.084;5.412;2024-01-30T14:12:59;10.30;99.90
61912;DHT22;49973;52.084;5.412;2024-01-30T14:15:27;10.30;99.90
61912;DHT22;49973;52.084;5.412;2024-01-30T14:17:56;10.20;99.90
61912;DHT22;49973;52.084;5.412;2024-01-30T14:20:26;10.20;99.90
61912;DHT22;49973;52.084;5.412;2024-01-30T14:22:55;10.20;99.90
61912;DHT22;49973;52.084;5.412;2024-01-30T14:25:25;10.20;99.90
61912;DHT22;49973;52.084;5.412;2024-01-30T14:27:54;10.20;99.90
61912;DHT22;49973;52.084;5.412;2024-01-30T14:30:23;10.20;99.90
61912;DHT22;49973;52.084;5.412;2024-01-30T14:32:52;10.20;99.90
61912;DHT22;49973;52.084;5.412;2024-01-30T14:35:20;10.20;99.90
61912;DHT22;49973;52.084;5.412;2024-01-30T14:37:49;10.20;99.90
61912;DHT22;49973;52.084;5.412;2024-01-30T14:40:18;10.10;99.90
61912;DHT22;49973;52.084;5.412;2024-01-30T14:42:48;10.10;99.90
61912;DHT22;49973;52.084;5.412;2024-01-30T14:45:17;10.00;99.90
61912;DHT22;49973;52.084;5.412;2024-01-30T14:47:46;9.90;99.90
61912;DHT22;49973;52.084;5.412;2024-01-30T14:50:15;9.80;99.90
61912;DHT22;49973;52.084;5.412;2024-01-30T14:52:44;9.60;99.90
61912;DHT22;49973;52.084;5.412;2024-01-30T14:55:13;9.60;99.90
61912;DHT22;49973;52.084;5.412;2024-01-30T14:57:42;9.50;99.90
61912;DHT22;49973;52.084;5.412;2024-01-30T15:00:15;9.30;99.90
61912;DHT22;49973;52.084;5.412;2024-01-30T15:02:44;9.30;99.90
61912;DHT22;49973;52.084;5.412;2024-01-30T15:05:14;9.10;99.90
61912;DHT22;49973;52.084;5.412;2024-01-30T15:07:44;9.10;99.90
61912;DHT22;49973;52.084;5.412;2024-01-30T15:10:13;9.00;99.90
61912;DHT22;49973;52.084;5.412;2024-01-30T15:12:42;8.90;99.90
61912;DHT22;49973;52.084;5.412;2024-01-30T15:15:10;8.80;99.90
61912;DHT22;49973;52.084;5.412;2024-01-30T15:17:40;8.80;99.90
61912;DHT22;49973;52.084;5.412;2024-01-30T15:20:09;8.80;99.90
61912;DHT22;49973;52.084;5.412;2024-01-30T15:22:38;8.80;99.90
61912;DHT22;49973;52.084;5.412;2024-01-30T15:25:08;8.70;99.90
61912;DHT22;49973;52.084;5.412;2024-01-30T15:27:36;8.70;99.90
61912;DHT22;49973;52.084;5.412;2024-01-30T15:30:06;8.70;99.90
61912;DHT22;49973;52.084;5.412;2024-01-30T15:32:35;8.60;99.90
61912;DHT22;49973;52.084;5.412;2024-01-30T15:35:06;8.70;99.90
61912;DHT22;49973;52.084;5.412;2024-01-30T15:37:36;8.60;99.90
61912;DHT22;49973;52.084;5.412;2024-01-30T15:40:05;8.60;99.90
61912;DHT22;49973;52.084;5.412;2024-01-30T15:42:36;8.60;99.90
61912;DHT22;49973;52.084;5.412;2024-01-30T15:45:05;8.60;99.90
61912;DHT22;49973;52.084;5.412;2024-01-30T15:47:33;8.60;99.90
61912;DHT22;49973;52.084;5.412;2024-01-30T15:50:02;8.60;99.90
61912;DHT22;49973;52.084;5.412;2024-01-30T15:52:33;8.60;99.90
61912;DHT22;49973;52.084;5.412;2024-01-30T15:55:02;8.50;99.90